createdAt,value
2023-04-18T00:00:02.116Z,0.00
2023-04-18T00:01:02.486Z,0.00
2023-04-18T00:02:02.563Z,0.00
2023-04-18T00:03:04.500Z,0.00
2023-04-18T00:04:02.807Z,0.00
2023-04-18T00:05:02.973Z,0.00
2023-04-18T00:06:02.648Z,0.00
2023-04-18T00:07:03.047Z,0.00
2023-04-18T00:08:02.682Z,0.00
2023-04-18T00:09:02.757Z,0.00
2023-04-18T00:10:02.496Z,0.00
2023-04-18T00:11:02.900Z,0.00
2023-04-18T00:12:03.283Z,0.00
2023-04-18T00:13:02.907Z,0.00
2023-04-18T00:14:03.301Z,0.00
2023-04-18T00:15:03.331Z,0.00
2023-04-18T00:16:02.873Z,0.00
2023-04-18T00:17:02.521Z,0.00
2023-04-18T00:18:03.003Z,0.00
2023-04-18T00:19:02.378Z,0.00
2023-04-18T00:20:02.378Z,0.00
2023-04-18T00:21:03.005Z,0.00
2023-04-18T00:22:02.624Z,0.00
2023-04-18T00:23:02.832Z,0.00
2023-04-18T00:24:02.788Z,0.00
2023-04-18T00:25:03.135Z,0.00
2023-04-18T00:26:02.740Z,0.00
2023-04-18T00:27:02.772Z,0.00
2023-04-18T00:28:02.770Z,0.00
2023-04-18T00:29:02.237Z,0.00
2023-04-18T00:30:02.546Z,0.00
2023-04-18T00:31:02.865Z,0.00
2023-04-18T00:32:02.563Z,0.00
2023-04-18T00:33:03.046Z,0.00
2023-04-18T00:34:02.688Z,0.00
2023-04-18T00:35:02.992Z,0.00
2023-04-18T00:36:02.415Z,0.00
2023-04-18T00:37:02.311Z,0.00
2023-04-18T00:38:02.009Z,0.00
2023-04-18T00:39:01.896Z,0.00
2023-04-18T00:40:02.238Z,0.00
2023-04-18T00:41:02.197Z,0.00
2023-04-18T00:42:02.075Z,0.00
2023-04-18T00:43:02.431Z,0.00
2023-04-18T00:44:02.291Z,0.00
2023-04-18T00:45:02.113Z,0.00
2023-04-18T00:46:02.254Z,0.00
2023-04-18T00:47:01.969Z,0.00
2023-04-18T00:48:02.365Z,0.00
2023-04-18T00:49:01.999Z,0.00
2023-04-18T00:50:02.303Z,0.00
2023-04-18T00:51:02.334Z,0.00
2023-04-18T00:52:02.106Z,0.00
2023-04-18T00:53:02.446Z,0.00
2023-04-18T00:54:02.058Z,0.00
2023-04-18T00:55:02.700Z,0.00
2023-04-18T00:56:02.067Z,0.00
2023-04-18T00:57:02.793Z,0.00
2023-04-18T00:58:02.659Z,0.00
2023-04-18T00:59:02.990Z,0.00
2023-04-18T01:00:02.477Z,0.00
2023-04-18T01:01:03.020Z,0.00
2023-04-18T01:02:02.625Z,0.00
2023-04-18T01:03:03.458Z,0.00
2023-04-18T01:04:02.764Z,0.00
2023-04-18T01:05:02.939Z,0.00
2023-04-18T01:06:03.000Z,0.00
2023-04-18T01:07:03.239Z,0.00
2023-04-18T01:08:03.186Z,0.00
2023-04-18T01:09:03.278Z,0.00
2023-04-18T01:10:03.726Z,0.00
2023-04-18T01:11:03.190Z,0.00
2023-04-18T01:12:02.645Z,0.00
2023-04-18T01:13:02.955Z,0.00
2023-04-18T01:14:03.179Z,0.00
2023-04-18T01:15:02.956Z,0.00
2023-04-18T01:16:02.563Z,0.00
2023-04-18T01:17:03.041Z,0.00
2023-04-18T01:18:03.390Z,0.00
2023-04-18T01:19:03.028Z,0.00
2023-04-18T01:20:03.418Z,0.00
2023-04-18T01:21:03.297Z,0.00
2023-04-18T01:22:02.998Z,0.00
2023-04-18T01:23:03.271Z,0.00
2023-04-18T01:24:03.131Z,0.00
2023-04-18T01:25:03.522Z,0.00
2023-04-18T01:26:03.321Z,0.00
2023-04-18T01:27:03.008Z,0.00
2023-04-18T01:28:03.118Z,0.00
2023-04-18T01:29:03.483Z,0.00
2023-04-18T01:30:03.579Z,0.00
2023-04-18T01:31:02.957Z,0.00
2023-04-18T01:32:02.415Z,0.00
2023-04-18T01:33:02.916Z,0.00
2023-04-18T01:34:02.601Z,0.00
2023-04-18T01:35:02.347Z,0.00
2023-04-18T01:36:02.955Z,0.00
2023-04-18T01:37:03.185Z,0.00
2023-04-18T01:38:03.636Z,0.00
2023-04-18T01:39:03.012Z,0.00
2023-04-18T01:40:03.043Z,0.00
2023-04-18T01:41:03.424Z,0.00
2023-04-18T01:42:02.744Z,0.00
2023-04-18T01:43:03.135Z,0.00
2023-04-18T01:44:03.171Z,0.00
2023-04-18T01:45:02.825Z,0.00
2023-04-18T01:46:03.028Z,0.00
2023-04-18T01:47:03.261Z,0.00
2023-04-18T01:48:03.184Z,0.00
2023-04-18T01:49:02.900Z,0.00
2023-04-18T01:50:03.210Z,0.00
2023-04-18T01:51:03.251Z,0.00
2023-04-18T01:52:03.009Z,0.00
2023-04-18T01:53:02.621Z,0.00
2023-04-18T01:54:02.575Z,0.00
2023-04-18T01:55:02.997Z,0.00
2023-04-18T01:56:03.056Z,0.00
2023-04-18T01:57:03.344Z,0.00
2023-04-18T01:58:02.898Z,0.00
2023-04-18T01:59:03.453Z,0.00
2023-04-18T02:00:02.903Z,0.00
2023-04-18T02:01:03.476Z,0.00
2023-04-18T02:02:02.557Z,0.00
2023-04-18T02:03:03.129Z,0.00
2023-04-18T02:04:02.575Z,0.00
2023-04-18T02:05:03.016Z,0.00
2023-04-18T02:06:02.366Z,0.00
2023-04-18T02:07:02.747Z,0.00
2023-04-18T02:08:03.059Z,0.00
2023-04-18T02:09:02.645Z,0.00
2023-04-18T02:10:03.127Z,0.00
2023-04-18T02:11:02.561Z,0.00
2023-04-18T02:12:03.253Z,0.00
2023-04-18T02:13:02.734Z,0.00
2023-04-18T02:14:03.051Z,0.00
2023-04-18T02:15:03.299Z,0.00
2023-04-18T02:16:03.389Z,0.00
2023-04-18T02:17:02.613Z,0.00
2023-04-18T02:18:02.341Z,0.00
2023-04-18T02:19:02.301Z,0.00
2023-04-18T02:20:02.661Z,0.00
2023-04-18T02:21:02.311Z,0.00
2023-04-18T02:22:02.601Z,0.00
2023-04-18T02:23:02.634Z,0.00
2023-04-18T02:24:02.706Z,0.00
2023-04-18T02:25:02.339Z,0.00
2023-04-18T02:26:02.737Z,0.00
2023-04-18T02:27:03.132Z,0.00
2023-04-18T02:28:03.329Z,0.00
2023-04-18T02:29:02.761Z,0.00
2023-04-18T02:30:03.199Z,0.00
2023-04-18T02:31:03.115Z,0.00
2023-04-18T02:32:02.684Z,0.00
2023-04-18T02:33:02.289Z,0.00
2023-04-18T02:34:02.171Z,0.00
2023-04-18T02:35:02.479Z,0.00
2023-04-18T02:36:02.711Z,0.00
2023-04-18T02:37:02.541Z,0.00
2023-04-18T02:38:03.025Z,0.00
2023-04-18T02:39:02.384Z,0.00
2023-04-18T02:40:02.730Z,0.00
2023-04-18T02:41:03.006Z,0.00
2023-04-18T02:42:03.071Z,0.00
2023-04-18T02:43:02.813Z,0.00
2023-04-18T02:44:03.171Z,0.00
2023-04-18T02:45:02.834Z,0.00
2023-04-18T02:46:03.130Z,0.00
2023-04-18T02:47:02.682Z,0.00
2023-04-18T02:48:02.739Z,0.00
2023-04-18T02:49:02.500Z,0.00
2023-04-18T02:50:02.211Z,0.00
2023-04-18T02:51:02.531Z,0.00
2023-04-18T02:52:02.825Z,0.00
2023-04-18T02:53:02.911Z,0.00
2023-04-18T02:54:02.366Z,0.00
2023-04-18T02:55:02.345Z,0.00
2023-04-18T02:56:02.715Z,0.00
2023-04-18T02:57:02.986Z,0.00
2023-04-18T02:58:02.606Z,0.00
2023-04-18T02:59:02.949Z,0.00
2023-04-18T03:00:02.851Z,0.00
2023-04-18T03:01:02.630Z,0.00
2023-04-18T03:02:02.434Z,0.00
2023-04-18T03:03:02.693Z,0.00
2023-04-18T03:04:02.562Z,0.00
2023-04-18T03:05:02.438Z,0.00
2023-04-18T03:06:02.269Z,0.00
2023-04-18T03:07:01.777Z,0.00
2023-04-18T03:08:02.174Z,0.00
2023-04-18T03:09:01.978Z,0.00
2023-04-18T03:10:01.933Z,0.00
2023-04-18T03:11:02.201Z,0.00
2023-04-18T03:12:02.499Z,0.00
2023-04-18T03:13:02.130Z,0.00
2023-04-18T03:14:02.183Z,0.00
2023-04-18T03:15:02.494Z,0.00
2023-04-18T03:16:02.064Z,0.00
2023-04-18T03:17:02.239Z,0.00
2023-04-18T03:18:01.862Z,0.00
2023-04-18T03:19:02.097Z,0.00
2023-04-18T03:20:01.560Z,0.00
2023-04-18T03:21:02.192Z,0.00
2023-04-18T03:22:02.534Z,0.00
2023-04-18T03:23:02.278Z,0.00
2023-04-18T03:24:02.401Z,0.00
2023-04-18T03:25:02.163Z,0.00
2023-04-18T03:26:02.497Z,0.00
2023-04-18T03:27:02.484Z,0.00
2023-04-18T03:28:02.450Z,0.00
2023-04-18T03:29:02.731Z,0.00
2023-04-18T03:30:02.784Z,0.00
2023-04-18T03:31:02.883Z,0.00
2023-04-18T03:32:02.456Z,0.00
2023-04-18T03:33:03.011Z,0.00
2023-04-18T03:34:02.354Z,0.00
2023-04-18T03:35:02.778Z,0.00
2023-04-18T03:36:02.481Z,0.00
2023-04-18T03:37:01.934Z,0.00
2023-04-18T03:38:02.274Z,0.00
2023-04-18T03:39:01.949Z,0.00
2023-04-18T03:40:02.369Z,0.00
2023-04-18T03:41:02.057Z,0.00
2023-04-18T03:42:02.796Z,0.00
2023-04-18T03:43:02.501Z,0.00
2023-04-18T03:44:02.562Z,0.00
2023-04-18T03:45:02.926Z,0.00
2023-04-18T03:46:02.595Z,0.00
2023-04-18T03:47:02.053Z,0.00
2023-04-18T03:48:02.542Z,0.00
2023-04-18T03:49:02.043Z,0.00
2023-04-18T03:50:02.383Z,0.00
2023-04-18T03:51:02.644Z,0.00
2023-04-18T03:52:02.314Z,0.00
2023-04-18T03:53:02.000Z,0.00
2023-04-18T03:54:02.378Z,0.00
2023-04-18T03:55:02.507Z,0.00
2023-04-18T03:56:02.198Z,0.00
2023-04-18T03:57:01.500Z,0.00
2023-04-18T03:58:02.025Z,4.00
2023-04-18T03:59:01.577Z,4.00
2023-04-18T04:00:02.048Z,0.00
2023-04-18T04:01:01.893Z,0.00
2023-04-18T04:02:02.793Z,4.00
2023-04-18T04:03:02.509Z,0.00
2023-04-18T04:04:02.838Z,4.00
2023-04-18T04:05:02.471Z,4.00
2023-04-18T04:06:02.679Z,8.00
2023-04-18T04:07:02.817Z,8.00
2023-04-18T04:08:03.073Z,8.00
2023-04-18T04:09:02.781Z,12.00
2023-04-18T04:10:03.155Z,12.00
2023-04-18T04:11:03.082Z,16.00
2023-04-18T04:12:02.583Z,16.00
2023-04-18T04:13:02.493Z,20.00
2023-04-18T04:14:02.324Z,24.00
2023-04-18T04:15:01.934Z,24.00
2023-04-18T04:16:02.148Z,28.00
2023-04-18T04:17:02.508Z,32.00
2023-04-18T04:18:02.333Z,36.00
2023-04-18T04:19:02.837Z,44.00
2023-04-18T04:20:02.606Z,52.00
2023-04-18T04:21:02.360Z,56.00
2023-04-18T04:22:02.867Z,68.00
2023-04-18T04:23:02.707Z,80.00
2023-04-18T04:24:03.190Z,88.00
2023-04-18T04:25:02.674Z,100.00
2023-04-18T04:26:02.735Z,108.00
2023-04-18T04:27:02.082Z,124.00
2023-04-18T04:28:02.506Z,136.00
2023-04-18T04:29:01.952Z,152.00
2023-04-18T04:30:02.438Z,168.00
2023-04-18T04:31:02.492Z,184.00
2023-04-18T04:32:02.229Z,200.00
2023-04-18T04:33:02.508Z,224.00
2023-04-18T04:34:02.172Z,240.00
2023-04-18T04:35:02.602Z,260.00
2023-04-18T04:36:02.388Z,280.00
2023-04-18T04:37:02.376Z,304.00
2023-04-18T04:38:02.123Z,328.00
2023-04-18T04:39:02.286Z,352.00
2023-04-18T04:40:02.415Z,380.00
2023-04-18T04:41:02.056Z,412.00
2023-04-18T04:42:02.015Z,448.00
2023-04-18T04:43:02.155Z,476.00
2023-04-18T04:44:02.248Z,508.00
2023-04-18T04:45:01.830Z,540.00
2023-04-18T04:46:02.132Z,564.00
2023-04-18T04:47:02.666Z,592.00
2023-04-18T04:48:02.754Z,620.00
2023-04-18T04:49:02.402Z,656.00
2023-04-18T04:50:02.923Z,712.00
2023-04-18T04:51:02.658Z,764.00
2023-04-18T04:52:02.969Z,808.00
2023-04-18T04:53:02.847Z,844.00
2023-04-18T04:54:03.074Z,876.00
2023-04-18T04:55:02.666Z,908.00
2023-04-18T04:56:02.446Z,940.00
2023-04-18T04:57:02.535Z,988.00
2023-04-18T04:58:02.423Z,1056.00
2023-04-18T04:59:02.523Z,1112.00
2023-04-18T05:00:02.657Z,1168.00
2023-04-18T05:01:02.839Z,1212.00
2023-04-18T05:02:02.279Z,1240.00
2023-04-18T05:03:02.835Z,1260.00
2023-04-18T05:04:02.431Z,1280.00
2023-04-18T05:05:02.670Z,1304.00
2023-04-18T05:06:02.214Z,1344.00
2023-04-18T05:07:02.669Z,1400.00
2023-04-18T05:08:02.836Z,1460.00
2023-04-18T05:09:02.610Z,1528.00
2023-04-18T05:10:02.494Z,1588.00
2023-04-18T05:11:02.952Z,1648.00
2023-04-18T05:12:03.163Z,1716.00
2023-04-18T05:13:03.350Z,1784.00
2023-04-18T05:14:02.967Z,1848.00
2023-04-18T05:15:02.817Z,1932.00
2023-04-18T05:16:03.089Z,2012.00
2023-04-18T05:17:02.100Z,2096.00
2023-04-18T05:18:02.384Z,2148.00
2023-04-18T05:19:01.958Z,2200.00
2023-04-18T05:20:02.645Z,2248.00
2023-04-18T05:21:02.131Z,2304.00
2023-04-18T05:22:02.776Z,2368.00
2023-04-18T05:23:02.838Z,2412.00
2023-04-18T05:24:02.482Z,2468.00
2023-04-18T05:25:02.450Z,2516.00
2023-04-18T05:26:02.728Z,2560.00
2023-04-18T05:27:02.274Z,2600.00
2023-04-18T05:28:01.959Z,2648.00
2023-04-18T05:29:02.158Z,2700.00
2023-04-18T05:30:01.900Z,2772.00
2023-04-18T05:31:02.421Z,2852.00
2023-04-18T05:32:02.054Z,2932.00
2023-04-18T05:33:02.285Z,3020.00
2023-04-18T05:34:02.102Z,3104.00
2023-04-18T05:35:01.910Z,3188.00
2023-04-18T05:36:02.383Z,3272.00
2023-04-18T05:37:02.587Z,3352.00
2023-04-18T05:38:02.301Z,3444.00
2023-04-18T05:39:02.244Z,3696.00
2023-04-18T05:40:02.477Z,4212.00
2023-04-18T05:41:02.625Z,4460.00
2023-04-18T05:42:02.630Z,4532.00
2023-04-18T05:43:02.690Z,4680.00
2023-04-18T05:44:05.636Z,4772.00
2023-04-18T05:45:02.957Z,4876.00
2023-04-18T05:46:02.790Z,5012.00
2023-04-18T05:47:02.502Z,5276.00
2023-04-18T05:48:02.103Z,5512.00
2023-04-18T05:49:01.927Z,5716.00
2023-04-18T05:50:02.346Z,5776.00
2023-04-18T05:51:02.149Z,5940.00
2023-04-18T05:52:02.378Z,6012.00
2023-04-18T05:53:02.386Z,6232.00
2023-04-18T05:54:02.204Z,6332.00
2023-04-18T05:55:02.526Z,6484.00
2023-04-18T05:56:02.632Z,6648.00
2023-04-18T05:57:04.278Z,6832.00
2023-04-18T05:58:02.331Z,6884.00
2023-04-18T05:59:02.460Z,7128.00
2023-04-18T06:00:02.803Z,7144.00
2023-04-18T06:01:02.731Z,7084.00
2023-04-18T06:02:02.562Z,7100.00
2023-04-18T06:03:02.745Z,7176.00
2023-04-18T06:04:03.172Z,7408.00
2023-04-18T06:05:02.829Z,7748.00
2023-04-18T06:06:03.172Z,7920.00
2023-04-18T06:07:01.935Z,8032.00
2023-04-18T06:08:02.421Z,8256.00
2023-04-18T06:09:02.160Z,8484.00
2023-04-18T06:10:02.315Z,8588.00
2023-04-18T06:11:02.377Z,8416.00
2023-04-18T06:12:03.020Z,8316.00
2023-04-18T06:13:02.912Z,8168.00
2023-04-18T06:14:02.425Z,8448.00
2023-04-18T06:15:02.560Z,8180.00
2023-04-18T06:16:02.923Z,7944.00
2023-04-18T06:17:03.071Z,7216.00
2023-04-18T06:18:02.725Z,7612.00
2023-04-18T06:19:02.421Z,8240.00
2023-04-18T06:20:02.965Z,8436.00
2023-04-18T06:21:02.490Z,8484.00
2023-04-18T06:22:02.193Z,8844.00
2023-04-18T06:23:01.807Z,8624.00
2023-04-18T06:24:02.452Z,8404.00
2023-04-18T06:25:02.069Z,8568.00
2023-04-18T06:26:01.924Z,8360.00
2023-04-18T06:27:01.851Z,9016.00
2023-04-18T06:28:02.466Z,9564.00
2023-04-18T06:29:02.409Z,9896.00
2023-04-18T06:30:01.912Z,10412.00
2023-04-18T06:31:02.330Z,11084.00
2023-04-18T06:32:02.189Z,11304.00
2023-04-18T06:33:02.006Z,12040.00
2023-04-18T06:34:02.401Z,8148.00
2023-04-18T06:35:02.352Z,9552.00
2023-04-18T06:36:02.089Z,6324.00
2023-04-18T06:37:02.034Z,6448.00
2023-04-18T06:38:02.087Z,6080.00
2023-04-18T06:39:02.009Z,5532.00
2023-04-18T06:40:01.922Z,5116.00
2023-04-18T06:41:01.614Z,5152.00
2023-04-18T06:42:01.997Z,5460.00
2023-04-18T06:43:02.426Z,6092.00
2023-04-18T06:44:04.169Z,6576.00
2023-04-18T06:45:02.509Z,6716.00
2023-04-18T06:46:02.465Z,6992.00
2023-04-18T06:47:02.138Z,7460.00
2023-04-18T06:48:02.469Z,7764.00
2023-04-18T06:49:02.560Z,8032.00
2023-04-18T06:50:02.035Z,10508.00
2023-04-18T06:51:01.936Z,10588.00
2023-04-18T06:52:02.146Z,10488.00
2023-04-18T06:53:02.376Z,11020.00
2023-04-18T06:54:02.141Z,11680.00
2023-04-18T06:55:02.617Z,10460.00
2023-04-18T06:56:02.261Z,9644.00
2023-04-18T06:57:02.342Z,9176.00
2023-04-18T06:58:02.098Z,8584.00
2023-04-18T06:59:02.565Z,8908.00
2023-04-18T07:00:02.629Z,9672.00
2023-04-18T07:01:02.286Z,10056.00
2023-04-18T07:02:04.034Z,10596.00
2023-04-18T07:03:03.956Z,11400.00
2023-04-18T07:04:03.696Z,12828.00
2023-04-18T07:05:03.930Z,12572.00
2023-04-18T07:06:03.508Z,11472.00
2023-04-18T07:07:03.683Z,11276.00
2023-04-18T07:08:03.497Z,11636.00
2023-04-18T07:09:03.881Z,16192.00
2023-04-18T07:10:03.914Z,13824.00
2023-04-18T07:11:03.570Z,10832.00
2023-04-18T07:12:02.757Z,8884.00
2023-04-18T07:13:02.795Z,7416.00
2023-04-18T07:14:03.205Z,7780.00
2023-04-18T07:15:03.189Z,8764.00
2023-04-18T07:16:03.059Z,9504.00
2023-04-18T07:17:02.921Z,10012.00
2023-04-18T07:18:03.299Z,10352.00
2023-04-18T07:19:03.406Z,10732.00
2023-04-18T07:20:03.098Z,11164.00
2023-04-18T07:21:02.907Z,11432.00
2023-04-18T07:22:02.519Z,11852.00
2023-04-18T07:23:02.939Z,11512.00
2023-04-18T07:24:02.562Z,10356.00
2023-04-18T07:25:02.880Z,10228.00
2023-04-18T07:26:03.062Z,9796.00
2023-04-18T07:27:02.585Z,9700.00
2023-04-18T07:28:02.873Z,9156.00
2023-04-18T07:29:03.113Z,9480.00
2023-04-18T07:30:02.679Z,9720.00
2023-04-18T07:31:02.522Z,9956.00
2023-04-18T07:32:02.868Z,10616.00
2023-04-18T07:33:02.916Z,11408.00
2023-04-18T07:34:03.012Z,11928.00
2023-04-18T07:35:02.791Z,13000.00
2023-04-18T07:36:03.298Z,13352.00
2023-04-18T07:37:03.104Z,15424.00
2023-04-18T07:38:03.176Z,16928.00
2023-04-18T07:39:02.931Z,27328.00
2023-04-18T07:40:03.492Z,28352.00
2023-04-18T07:41:03.071Z,23296.00
2023-04-18T07:42:03.637Z,16832.00
2023-04-18T07:43:03.294Z,21632.00
2023-04-18T07:44:03.681Z,21984.00
2023-04-18T07:45:03.271Z,20832.00
2023-04-18T07:46:03.232Z,13552.00
2023-04-18T07:47:03.896Z,20256.00
2023-04-18T07:48:03.313Z,20512.00
2023-04-18T07:49:03.266Z,21216.00
2023-04-18T07:50:03.834Z,21600.00
2023-04-18T07:51:03.475Z,22048.00
2023-04-18T07:52:02.818Z,23936.00
2023-04-18T07:53:03.076Z,25536.00
2023-04-18T07:54:02.665Z,26080.00
2023-04-18T07:55:03.204Z,16704.00
2023-04-18T07:56:03.026Z,18304.00
2023-04-18T07:57:02.939Z,12520.00
2023-04-18T07:58:02.980Z,12672.00
2023-04-18T07:59:03.358Z,16640.00
2023-04-18T08:00:03.317Z,25664.00
2023-04-18T08:01:03.096Z,11400.00
2023-04-18T08:02:02.679Z,11780.00
2023-04-18T08:03:02.687Z,11908.00
2023-04-18T08:04:02.717Z,10768.00
2023-04-18T08:05:03.082Z,11108.00
2023-04-18T08:06:02.596Z,12180.00
2023-04-18T08:07:03.000Z,11616.00
2023-04-18T08:08:03.125Z,11544.00
2023-04-18T08:09:03.344Z,11596.00
2023-04-18T08:10:03.305Z,11300.00
2023-04-18T08:11:03.132Z,11288.00
2023-04-18T08:12:02.605Z,11988.00
2023-04-18T08:13:02.470Z,11052.00
2023-04-18T08:14:02.876Z,10536.00
2023-04-18T08:15:02.715Z,10628.00
2023-04-18T08:16:02.529Z,10412.00
2023-04-18T08:17:03.255Z,10432.00
2023-04-18T08:18:03.150Z,10388.00
2023-04-18T08:19:02.997Z,10476.00
2023-04-18T08:20:03.502Z,10884.00
2023-04-18T08:21:03.355Z,11032.00
2023-04-18T08:22:02.730Z,11376.00
2023-04-18T08:23:08.642Z,11340.00
2023-04-18T08:24:02.586Z,11236.00
2023-04-18T08:25:05.397Z,11116.00
2023-04-18T08:26:02.386Z,10956.00
2023-04-18T08:27:02.870Z,11396.00
2023-04-18T08:28:02.749Z,12016.00
2023-04-18T08:29:02.698Z,12476.00
2023-04-18T08:30:03.162Z,12488.00
2023-04-18T08:31:02.667Z,12520.00
2023-04-18T08:32:03.557Z,12788.00
2023-04-18T08:33:03.311Z,12124.00
2023-04-18T08:34:04.964Z,11464.00
2023-04-18T08:35:03.557Z,11864.00
2023-04-18T08:36:03.177Z,12728.00
2023-04-18T08:37:02.987Z,13136.00
2023-04-18T08:38:02.561Z,13208.00
2023-04-18T08:39:03.100Z,13420.00
2023-04-18T08:40:02.718Z,13860.00
2023-04-18T08:41:02.787Z,14300.00
2023-04-18T08:42:03.322Z,14716.00
2023-04-18T08:43:03.010Z,14668.00
2023-04-18T08:44:03.526Z,14316.00
2023-04-18T08:45:03.158Z,14520.00
2023-04-18T08:46:03.220Z,14328.00
2023-04-18T08:47:02.781Z,13516.00
2023-04-18T08:48:02.807Z,13560.00
2023-04-18T08:49:02.696Z,13724.00
2023-04-18T08:50:02.644Z,13176.00
2023-04-18T08:51:02.461Z,12524.00
2023-04-18T08:52:02.519Z,12068.00
2023-04-18T08:53:02.342Z,11800.00
2023-04-18T08:54:02.666Z,11860.00
2023-04-18T08:55:02.189Z,12112.00
2023-04-18T08:56:02.608Z,12364.00
2023-04-18T08:57:02.931Z,12992.00
2023-04-18T08:58:02.831Z,13760.00
2023-04-18T08:59:02.981Z,14080.00
2023-04-18T09:00:02.533Z,14156.00
2023-04-18T09:01:03.167Z,14260.00
2023-04-18T09:02:03.150Z,14212.00
2023-04-18T09:03:03.198Z,14496.00
2023-04-18T09:04:02.894Z,13920.00
2023-04-18T09:05:03.271Z,12808.00
2023-04-18T09:06:03.152Z,12260.00
2023-04-18T09:07:03.684Z,12452.00
2023-04-18T09:08:03.796Z,12668.00
2023-04-18T09:09:03.279Z,12620.00
2023-04-18T09:10:03.659Z,12264.00
2023-04-18T09:11:03.221Z,12028.00
2023-04-18T09:12:03.595Z,12100.00
2023-04-18T09:13:03.910Z,12592.00
2023-04-18T09:14:03.465Z,13692.00
2023-04-18T09:15:03.892Z,15232.00
2023-04-18T09:16:03.910Z,16384.00
2023-04-18T09:17:03.315Z,17696.00
2023-04-18T09:18:03.204Z,18432.00
2023-04-18T09:19:04.170Z,18560.00
2023-04-18T09:20:03.066Z,17568.00
2023-04-18T09:21:02.783Z,19584.00
2023-04-18T09:22:02.953Z,18880.00
2023-04-18T09:23:03.313Z,32224.00
2023-04-18T09:24:02.966Z,33280.00
2023-04-18T09:25:03.449Z,31264.00
2023-04-18T09:26:03.136Z,31392.00
2023-04-18T09:27:03.601Z,34176.00
2023-04-18T09:28:03.440Z,35904.00
2023-04-18T09:29:03.165Z,36384.00
2023-04-18T09:30:03.033Z,36576.00
2023-04-18T09:31:03.473Z,36736.00
2023-04-18T09:32:03.203Z,35360.00
2023-04-18T09:33:03.250Z,36896.00
2023-04-18T09:34:02.714Z,24992.00
2023-04-18T09:35:04.333Z,20864.00
2023-04-18T09:36:02.668Z,38912.00
2023-04-18T09:37:03.844Z,42400.00
2023-04-18T09:38:03.421Z,33824.00
2023-04-18T09:39:03.225Z,26912.00
2023-04-18T09:40:03.808Z,37024.00
2023-04-18T09:41:03.457Z,44416.00
2023-04-18T09:42:02.492Z,32384.00
2023-04-18T09:43:02.883Z,38560.00
2023-04-18T09:44:02.729Z,25344.00
2023-04-18T09:45:03.127Z,22880.00
2023-04-18T09:46:02.669Z,21952.00
2023-04-18T09:47:02.509Z,21536.00
2023-04-18T09:48:02.967Z,19296.00
2023-04-18T09:49:02.912Z,19104.00
2023-04-18T09:50:02.983Z,21152.00
2023-04-18T09:51:03.111Z,26272.00
2023-04-18T09:52:03.357Z,35104.00
2023-04-18T09:53:03.109Z,35712.00
2023-04-18T09:54:03.055Z,41568.00
2023-04-18T09:55:02.839Z,23296.00
2023-04-18T09:56:02.956Z,23520.00
2023-04-18T09:57:03.162Z,19392.00
2023-04-18T09:58:03.807Z,18688.00
2023-04-18T09:59:03.762Z,19712.00
2023-04-18T10:00:03.309Z,29184.00
2023-04-18T10:01:03.479Z,33280.00
2023-04-18T10:02:02.819Z,28224.00
2023-04-18T10:03:03.051Z,24896.00
2023-04-18T10:04:02.874Z,22720.00
2023-04-18T10:05:02.976Z,22240.00
2023-04-18T10:06:02.790Z,23072.00
2023-04-18T10:07:03.557Z,18208.00
2023-04-18T10:08:03.391Z,16800.00
2023-04-18T10:09:03.273Z,15648.00
2023-04-18T10:10:03.341Z,14236.00
2023-04-18T10:11:03.639Z,14240.00
2023-04-18T10:12:02.863Z,14620.00
2023-04-18T10:13:02.587Z,14976.00
2023-04-18T10:14:02.658Z,14536.00
2023-04-18T10:15:02.733Z,14096.00
2023-04-18T10:16:02.722Z,13764.00
2023-04-18T10:17:02.731Z,13368.00
2023-04-18T10:18:05.840Z,12820.00
2023-04-18T10:19:03.285Z,12012.00
2023-04-18T10:20:02.997Z,11272.00
2023-04-18T10:21:03.094Z,10944.00
2023-04-18T10:22:02.919Z,10956.00
2023-04-18T10:23:03.304Z,11268.00
2023-04-18T10:24:03.518Z,11996.00
2023-04-18T10:25:03.225Z,12456.00
2023-04-18T10:26:02.946Z,13580.00
2023-04-18T10:27:02.620Z,15776.00
2023-04-18T10:28:02.652Z,17568.00
2023-04-18T10:29:03.125Z,18688.00
2023-04-18T10:30:02.430Z,21184.00
2023-04-18T10:31:02.700Z,20544.00
2023-04-18T10:32:03.076Z,19904.00
2023-04-18T10:33:03.157Z,19488.00
2023-04-18T10:34:05.583Z,19712.00
2023-04-18T10:35:03.139Z,20704.00
2023-04-18T10:36:03.251Z,21536.00
2023-04-18T10:37:02.315Z,22784.00
2023-04-18T10:38:02.264Z,30784.00
2023-04-18T10:39:02.484Z,29184.00
2023-04-18T10:40:02.679Z,25792.00
2023-04-18T10:41:02.632Z,29600.00
2023-04-18T10:42:02.806Z,26656.00
2023-04-18T10:43:02.844Z,24800.00
2023-04-18T10:44:03.197Z,19872.00
2023-04-18T10:45:02.808Z,20256.00
2023-04-18T10:46:02.709Z,19840.00
2023-04-18T10:47:02.556Z,19104.00
2023-04-18T10:48:02.326Z,18272.00
2023-04-18T10:49:02.912Z,16096.00
2023-04-18T10:50:05.932Z,15160.00
2023-04-18T10:51:02.695Z,16096.00
2023-04-18T10:52:03.089Z,17376.00
2023-04-18T10:53:02.897Z,17856.00
2023-04-18T10:54:03.234Z,17664.00
2023-04-18T10:55:03.134Z,16896.00
2023-04-18T10:56:02.944Z,15700.00
2023-04-18T10:57:02.633Z,15152.00
2023-04-18T10:58:02.738Z,16352.00
2023-04-18T10:59:02.944Z,17696.00
2023-04-18T11:00:02.771Z,17536.00
2023-04-18T11:01:02.948Z,15384.00
2023-04-18T11:02:02.634Z,14188.00
2023-04-18T11:03:02.944Z,14592.00
2023-04-18T11:04:02.977Z,16832.00
2023-04-18T11:05:02.452Z,18048.00
2023-04-18T11:06:02.849Z,18336.00
2023-04-18T11:07:02.004Z,37440.00
2023-04-18T11:08:01.726Z,20160.00
2023-04-18T11:09:01.931Z,21504.00
2023-04-18T11:10:02.022Z,19296.00
2023-04-18T11:11:02.133Z,23392.00
2023-04-18T11:12:02.396Z,32832.00
2023-04-18T11:13:02.373Z,25280.00
2023-04-18T11:14:02.451Z,23104.00
2023-04-18T11:15:02.204Z,24224.00
2023-04-18T11:16:02.270Z,18784.00
2023-04-18T11:17:02.565Z,18336.00
2023-04-18T11:18:02.615Z,21632.00
2023-04-18T11:19:02.701Z,19776.00
2023-04-18T11:20:02.520Z,20544.00
2023-04-18T11:21:02.603Z,19232.00
2023-04-18T11:22:02.519Z,13376.00
2023-04-18T11:23:02.380Z,13140.00
2023-04-18T11:24:02.415Z,15200.00
2023-04-18T11:25:02.509Z,15432.00
2023-04-18T11:26:02.427Z,14188.00
2023-04-18T11:27:02.162Z,15832.00
2023-04-18T11:28:02.332Z,17216.00
2023-04-18T11:29:02.080Z,20768.00
2023-04-18T11:30:02.271Z,21824.00
2023-04-18T11:31:01.978Z,20320.00
2023-04-18T11:32:02.580Z,23296.00
2023-04-18T11:33:02.722Z,19328.00
2023-04-18T11:34:02.588Z,18336.00
2023-04-18T11:35:02.381Z,22784.00
2023-04-18T11:36:02.441Z,28288.00
2023-04-18T11:37:02.248Z,41344.00
2023-04-18T11:38:02.322Z,25312.00
2023-04-18T11:39:01.958Z,44384.00
2023-04-18T11:40:02.362Z,43584.00
2023-04-18T11:41:02.076Z,39712.00
2023-04-18T11:42:02.751Z,44832.00
2023-04-18T11:43:02.790Z,44480.00
2023-04-18T11:44:02.689Z,44544.00
2023-04-18T11:45:02.526Z,44800.00
2023-04-18T11:46:02.444Z,44000.00
2023-04-18T11:47:03.011Z,45440.00
2023-04-18T11:48:02.534Z,45536.00
2023-04-18T11:49:02.828Z,46752.00
2023-04-18T11:50:02.955Z,38208.00
2023-04-18T11:51:03.145Z,47680.00
2023-04-18T11:52:02.264Z,36480.00
2023-04-18T11:53:02.285Z,45536.00
2023-04-18T11:54:01.815Z,43968.00
2023-04-18T11:55:01.858Z,44096.00
2023-04-18T11:56:01.868Z,38848.00
2023-04-18T11:57:02.339Z,42528.00
2023-04-18T11:58:01.884Z,29536.00
2023-04-18T11:59:02.219Z,39744.00
2023-04-18T12:00:02.579Z,44672.00
2023-04-18T12:01:01.961Z,41184.00
2023-04-18T12:02:14.421Z,28288.00
2023-04-18T12:03:02.455Z,31456.00
2023-04-18T12:04:02.987Z,23488.00
2023-04-18T12:05:02.677Z,25312.00
2023-04-18T12:06:02.446Z,42688.00
2023-04-18T12:07:03.039Z,24704.00
2023-04-18T12:08:03.079Z,20288.00
2023-04-18T12:09:02.840Z,18976.00
2023-04-18T12:10:02.960Z,18272.00
2023-04-18T12:11:02.870Z,18848.00
2023-04-18T12:12:02.644Z,19392.00
2023-04-18T12:13:02.445Z,18208.00
2023-04-18T12:14:04.031Z,16544.00
2023-04-18T12:15:02.300Z,16096.00
2023-04-18T12:16:02.547Z,14364.00
2023-04-18T12:17:03.114Z,13812.00
2023-04-18T12:18:03.200Z,13484.00
2023-04-18T12:19:03.044Z,14456.00
2023-04-18T12:20:02.612Z,17312.00